Time;durP1;ratioP1;P1;durP2;ratioP2;P2;SDS_P1;SDS_P2;PMS_P1;PMS_P2;Temp;Humidity;BMP_temperature;BMP_pressure;BME280_temperature;BME280_humidity;BME280_pressure;Samples;Min_cycle;Max_cycle;Signal;HPM_P1;HPM_P2
2022/10/21 00:01:40;;;;;;;16.52;9.43;;;;;;;16.18;100.00;99840.03;5013782;28;20036;-62
2022/10/21 00:04:05;;;;;;;13.93;8.98;;;;;;;16.24;100.00;99849.56;5013919;28;20108;-62
2022/10/21 00:06:31;;;;;;;21.02;10.40;;;;;;;16.28;100.00;99864.50;5012657;28;20032;-63
2022/10/21 00:08:56;;;;;;;18.33;9.88;;;;;;;16.30;100.00;99870.66;5013107;28;20466;-63
2022/10/21 00:11:21;;;;;;;21.88;10.07;;;;;;;16.35;100.00;99868.59;5014193;28;20029;-62
2022/10/21 00:13:47;;;;;;;19.52;10.32;;;;;;;16.38;100.00;99879.13;5013786;28;20088;-62
2022/10/21 00:16:15;;;;;;;18.50;10.15;;;;;;;16.41;100.00;99895.06;5014947;28;20044;-62
2022/10/21 00:18:42;;;;;;;21.23;10.13;;;;;;;16.45;100.00;99883.19;5028153;28;20029;-62
2022/10/21 00:21:10;;;;;;;25.00;11.48;;;;;;;16.47;100.00;99859.84;5017277;28;20037;-62
2022/10/21 00:23:36;;;;;;;20.90;10.48;;;;;;;16.52;100.00;99853.22;5012720;28;20026;-62
2022/10/21 00:26:03;;;;;;;18.40;10.68;;;;;;;16.52;100.00;99818.31;5012581;28;20046;-62
2022/10/21 00:28:28;;;;;;;20.42;11.25;;;;;;;16.62;100.00;99832.09;5012026;28;20041;-62
2022/10/21 00:30:54;;;;;;;16.67;10.43;;;;;;;16.60;100.00;99825.94;5013101;28;20021;-62
2022/10/21 00:33:19;;;;;;;15.85;10.68;;;;;;;16.65;100.00;99829.22;5022075;28;20465;-62
2022/10/21 00:36:01;;;;;;;18.67;9.88;;;;;;;16.65;100.00;99813.09;5030473;28;20068;-62
2022/10/21 00:38:27;;;;;;;15.98;10.25;;;;;;;16.65;100.00;99805.03;5011765;28;20022;-62
2022/10/21 00:40:53;;;;;;;16.35;8.63;;;;;;;16.66;100.00;99799.56;5011818;28;20446;-62
2022/10/21 00:43:18;;;;;;;17.77;9.48;;;;;;;16.68;100.00;99802.16;5012276;28;20074;-62
2022/10/21 00:45:48;;;;;;;19.02;9.50;;;;;;;16.69;100.00;99787.78;5011812;28;20040;-62
2022/10/21 00:48:24;;;;;;;16.02;9.63;;;;;;;16.73;100.00;99775.91;5011983;28;20033;-62
2022/10/21 00:50:59;;;;;;;15.05;9.50;;;;;;;16.70;100.00;99768.03;5011460;28;20030;-62
2022/10/21 00:53:26;;;;;;;16.90;8.88;;;;;;;16.70;100.00;99768.03;5012120;28;20397;-62
2022/10/21 00:55:56;;;;;;;17.45;9.07;;;;;;;16.70;100.00;99768.03;5011719;28;20116;-62
2022/10/21 00:58:25;;;;;;;16.77;9.10;;;;;;;16.69;100.00;99760.91;5011754;28;20026;-62
2022/10/21 01:00:54;;;;;;;20.20;9.55;;;;;;;16.65;100.00;99759.38;5010938;28;20109;-58
2022/10/21 01:03:23;;;;;;;17.02;7.88;;;;;;;16.60;100.00;99745.38;5010603;28;20033;-57
2022/10/21 01:05:49;;;;;;;16.45;8.52;;;;;;;16.54;100.00;99746.59;5010888;28;20025;-58
2022/10/21 01:08:14;;;;;;;13.00;8.15;;;;;;;16.50;100.00;99733.47;5011215;28;20037;-58
2022/10/21 01:10:40;;;;;;;11.85;7.40;;;;;;;16.47;100.00;99728.28;5011362;28;20026;-58
2022/10/21 01:13:11;;;;;;;13.27;7.43;;;;;;;16.39;100.00;99726.03;5010903;28;20065;-58
2022/10/21 01:15:49;;;;;;;14.10;8.55;;;;;;;16.27;100.00;99712.50;5010727;28;20044;-57
2022/10/21 01:18:22;;;;;;;14.00;7.85;;;;;;;16.33;100.00;99720.16;5011163;28;20429;-58
2022/10/21 01:21:08;;;;;;;15.27;7.65;;;;;;;16.31;100.00;99720.25;5010318;28;20381;-58
2022/10/21 01:24:11;;;;;;;14.60;8.30;;;;;;;16.30;100.00;99709.63;5010601;28;20041;-58
2022/10/21 01:26:42;;;;;;;16.45;7.95;;;;;;;16.31;100.00;99703.31;4991120;28;20045;-57
2022/10/21 01:29:20;;;;;;;18.42;7.78;;;;;;;16.33;100.00;99694.19;4992460;28;20490;-58
2022/10/21 01:31:53;;;;;;;13.13;7.22;;;;;;;16.32;100.00;99692.47;4994646;28;20027;-59
2022/10/21 01:34:43;;;;;;;13.50;7.30;;;;;;;16.31;100.00;99700.63;4994856;28;20488;-58
2022/10/21 01:37:34;;;;;;;11.23;7.15;;;;;;;16.28;100.00;99690.94;4994672;28;20034;-58
2022/10/21 01:40:12;;;;;;;13.23;7.63;;;;;;;16.23;100.00;99681.41;4997023;28;20116;-58
2022/10/21 01:42:51;;;;;;;12.52;7.28;;;;;;;16.23;100.00;99692.16;4975232;28;20501;-58
2022/10/21 01:45:35;;;;;;;15.25;7.30;;;;;;;16.21;100.00;99683.34;4975251;28;20169;-58
2022/10/21 01:48:12;;;;;;;9.98;6.75;;;;;;;16.26;100.00;99686.63;4984252;28;20030;-58
2022/10/21 01:50:43;;;;;;;11.63;6.75;;;;;;;16.27;100.00;99688.34;4994179;28;20792;-58
2022/10/21 01:53:11;;;;;;;13.60;6.90;;;;;;;16.27;100.00;99682.97;4994442;28;20022;-58
2022/10/21 01:55:39;;;;;;;16.55;8.35;;;;;;;16.31;100.00;99674.63;4994148;28;20026;-57
2022/10/21 01:58:27;;;;;;;15.98;8.77;;;;;;;16.34;100.00;99661.00;4994272;28;20045;-57
2022/10/21 02:00:56;;;;;;;15.00;7.78;;;;;;;16.35;100.00;99643.09;4993571;28;20066;-58
2022/10/21 02:03:27;;;;;;;13.75;7.15;;;;;;;16.30;100.00;99629.97;4994267;28;20030;-58
2022/10/21 02:05:53;;;;;;;17.63;7.78;;;;;;;16.30;100.00;99634.47;4994273;28;20026;-58
2022/10/21 02:08:18;;;;;;;14.02;6.78;;;;;;;16.29;100.00;99630.06;4994235;28;20113;-57
2022/10/21 02:10:49;;;;;;;12.98;7.20;;;;;;;16.24;100.00;99618.75;4993913;28;20030;-57
2022/10/21 02:13:22;;;;;;;13.88;7.57;;;;;;;16.23;100.00;99622.38;4993971;28;20125;-58
2022/10/21 02:15:51;;;;;;;15.95;7.13;;;;;;;16.21;100.00;99609.06;4993828;28;20045;-58
2022/10/21 02:18:21;;;;;;;11.38;6.30;;;;;;;16.21;100.00;99609.06;4993870;28;20516;-58
2022/10/21 02:20:50;;;;;;;12.88;6.82;;;;;;;16.15;100.00;99603.19;5002847;28;20557;-58
2022/10/21 02:23:20;;;;;;;14.05;7.18;;;;;;;16.13;100.00;99600.63;5013603;28;20029;-58
2022/10/21 02:25:49;;;;;;;13.10;7.53;;;;;;;16.10;100.00;99599.94;5028986;28;20057;-59
2022/10/21 02:28:15;;;;;;;14.98;7.32;;;;;;;16.12;100.00;99606.09;5032956;28;20029;-58
2022/10/21 02:30:54;;;;;;;11.73;6.32;;;;;;;16.12;100.00;99592.66;5032839;28;20017;-58
2022/10/21 02:33:33;;;;;;;12.20;6.75;;;;;;;16.16;100.00;99589.69;5033219;28;20083;-58
2022/10/21 02:36:15;;;;;;;17.80;7.07;;;;;;;16.09;100.00;99598.22;5029075;28;20030;-57
2022/10/21 02:38:48;;;;;;;12.05;6.82;;;;;;;16.02;100.00;99586.13;5012732;28;20030;-58
2022/10/21 02:41:19;;;;;;;17.33;7.43;;;;;;;16.02;100.00;99588.81;5012321;28;20512;-57
2022/10/21 02:44:00;;;;;;;16.63;7.15;;;;;;;16.01;100.00;99587.09;5013481;28;20065;-57
2022/10/21 02:46:33;;;;;;;17.38;7.03;;;;;;;15.98;100.00;99584.63;5012916;28;20466;-58
2022/10/21 02:48:59;;;;;;;13.25;7.28;;;;;;;15.97;100.00;99578.38;5012586;28;20061;-57
2022/10/21 02:51:24;;;;;;;13.02;7.82;;;;;;;15.97;100.00;99567.66;5012960;28;20108;-57
2022/10/21 02:53:50;;;;;;;13.13;7.05;;;;;;;16.00;100.00;99566.59;5013222;28;20029;-57
2022/10/21 02:56:15;;;;;;;14.32;7.75;;;;;;;15.97;100.00;99566.78;5012617;28;20034;-57
2022/10/21 02:58:40;;;;;;;13.07;6.97;;;;;;;15.95;100.00;99568.72;5012790;28;20036;-58
2022/10/21 03:01:06;;;;;;;15.85;7.55;;;;;;;15.94;100.00;99575.00;5012861;28;20629;-58
2022/10/21 03:03:31;;;;;;;12.18;7.00;;;;;;;15.95;100.00;99576.75;5012587;28;20160;-58
2022/10/21 03:05:57;;;;;;;11.50;6.28;;;;;;;15.92;100.00;99587.66;5012441;28;20033;-58
2022/10/21 03:08:22;;;;;;;15.63;6.93;;;;;;;15.95;100.00;99579.44;5012365;28;20029;-58
2022/10/21 03:10:49;;;;;;;14.60;6.75;;;;;;;15.96;100.00;99578.47;5012526;28;20026;-58
2022/10/21 03:13:15;;;;;;;14.25;8.82;;;;;;;15.97;100.00;99578.38;5012770;28;20049;-58
2022/10/21 03:15:40;;;;;;;11.98;6.20;;;;;;;15.98;100.00;99568.53;5012321;28;20165;-58
2022/10/21 03:18:06;;;;;;;12.82;7.05;;;;;;;15.95;100.00;99574.91;5012467;28;20026;-57
2022/10/21 03:20:31;;;;;;;12.27;6.80;;;;;;;15.98;100.00;99576.56;5011821;28;20469;-58
2022/10/21 03:22:57;;;;;;;12.93;7.10;;;;;;;16.02;100.00;99578.09;5012249;28;20040;-57
2022/10/21 03:25:22;;;;;;;11.65;6.97;;;;;;;16.07;100.00;99598.31;5012297;28;20093;-58
2022/10/21 03:27:50;;;;;;;14.82;7.10;;;;;;;16.11;100.00;99593.63;5011846;28;20521;-58
2022/10/21 03:30:16;;;;;;;11.00;6.55;;;;;;;16.12;100.00;99593.53;5012310;28;20057;-57
2022/10/21 03:32:42;;;;;;;13.98;6.93;;;;;;;16.17;100.00;99593.25;5016001;28;20060;-58
2022/10/21 03:35:07;;;;;;;10.95;7.00;;;;;;;16.20;100.00;99598.41;4992827;28;20042;-58
2022/10/21 03:37:33;;;;;;;12.32;7.20;;;;;;;16.23;100.00;99595.53;5008937;28;20050;-58
2022/10/21 03:39:58;;;;;;;11.43;6.65;;;;;;;16.25;100.00;99590.94;5011834;28;20037;-58
2022/10/21 03:42:24;;;;;;;13.55;7.40;;;;;;;16.27;100.00;99591.72;5011979;28;20239;-58
2022/10/21 03:44:49;;;;;;;16.70;7.18;;;;;;;16.28;100.00;99593.44;5011921;28;20022;-58
2022/10/21 03:47:15;;;;;;;11.38;7.25;;;;;;;16.29;100.00;99589.81;5011659;28;20037;-58
2022/10/21 03:49:40;;;;;;;16.38;7.22;;;;;;;16.29;100.00;99585.28;5011968;28;20021;-57
2022/10/21 03:52:06;;;;;;;14.15;6.88;;;;;;;16.31;100.00;99586.06;5011679;28;20366;-57
2022/10/21 03:54:32;;;;;;;14.00;7.20;;;;;;;16.33;100.00;99591.31;5011184;28;20108;-58
2022/10/21 03:56:57;;;;;;;14.82;7.68;;;;;;;16.30;100.00;99581.66;5011129;28;20197;-58
2022/10/21 03:59:22;;;;;;;13.82;7.80;;;;;;;16.36;100.00;99591.16;5011737;28;20060;-58
2022/10/21 04:01:48;;;;;;;16.98;8.75;;;;;;;16.30;100.00;99580.78;5011727;28;20465;-58
2022/10/21 04:04:13;;;;;;;15.50;8.00;;;;;;;16.39;100.00;99585.59;5011361;28;20041;-58
2022/10/21 04:06:39;;;;;;;16.45;7.80;;;;;;;16.42;100.00;99596.13;5011469;28;20018;-58
2022/10/21 04:09:04;;;;;;;15.60;7.72;;;;;;;16.42;100.00;99586.25;5011598;28;20026;-57
2022/10/21 04:11:30;;;;;;;13.75;7.22;;;;;;;16.46;100.00;99592.31;5010548;28;20483;-57
2022/10/21 04:13:55;;;;;;;15.27;7.07;;;;;;;16.50;100.00;99589.34;5011197;28;20449;-57
2022/10/21 04:16:22;;;;;;;13.43;7.57;;;;;;;16.53;100.00;99577.53;5016218;28;20028;-58
2022/10/21 04:18:47;;;;;;;23.90;7.38;;;;;;;16.55;100.00;99575.63;5030862;28;20017;-58
2022/10/21 04:21:13;;;;;;;14.25;7.50;;;;;;;16.58;100.00;99570.06;5030005;28;20492;-58
2022/10/21 04:23:38;;;;;;;12.70;7.55;;;;;;;16.59;100.00;99567.28;5030438;28;20112;-57
2022/10/21 04:26:05;;;;;;;13.38;6.78;;;;;;;16.61;100.00;99585.97;5030627;28;20045;-57
2022/10/21 04:28:31;;;;;;;12.45;6.85;;;;;;;16.62;100.00;99576.97;5030980;28;20053;-58
2022/10/21 04:30:57;;;;;;;12.10;7.10;;;;;;;16.65;100.00;99584.81;5030617;28;20164;-58
2022/10/21 04:33:22;;;;;;;19.90;7.85;;;;;;;16.68;100.00;99576.56;5031108;28;20040;-58
2022/10/21 04:35:47;;;;;;;17.30;8.50;;;;;;;16.68;100.00;99581.94;5029079;28;20083;-58
2022/10/21 04:38:13;;;;;;;20.85;7.65;;;;;;;16.70;100.00;99580.91;5011243;28;20492;-58
2022/10/21 04:40:38;;;;;;;17.10;8.32;;;;;;;16.76;100.00;99576.94;5010904;28;20030;-58
2022/10/21 04:43:04;;;;;;;19.75;8.50;;;;;;;16.73;100.00;99569.94;5010971;28;20358;-58
2022/10/21 04:45:29;;;;;;;18.23;8.10;;;;;;;16.80;100.00;99579.31;5010962;28;20029;-58
2022/10/21 04:47:55;;;;;;;13.35;7.50;;;;;;;16.83;100.00;99578.28;5011109;28;20137;-58
2022/10/21 04:50:21;;;;;;;32.13;8.80;;;;;;;16.82;100.00;99573.84;5011306;28;20021;-57
2022/10/21 04:52:46;;;;;;;22.80;8.40;;;;;;;16.84;100.00;99585.34;5011144;28;20059;-57
2022/10/21 04:55:11;;;;;;;16.48;8.20;;;;;;;16.85;100.00;99589.78;5010781;28;20030;-57
2022/10/21 04:57:38;;;;;;;18.52;9.38;;;;;;;16.85;100.00;99589.78;5010983;28;20253;-57
2022/10/21 05:00:06;;;;;;;17.90;9.70;;;;;;;16.88;100.00;99587.78;5011233;28;20030;-57
2022/10/21 05:02:31;;;;;;;20.25;8.95;;;;;;;16.89;100.00;99578.72;5010773;28;20021;-57
2022/10/21 05:04:57;;;;;;;18.38;9.82;;;;;;;16.94;100.00;99573.06;5013265;28;20048;-57
2022/10/21 05:07:22;;;;;;;15.68;8.38;;;;;;;16.98;100.00;99570.06;5014990;28;20485;-57
2022/10/21 05:09:47;;;;;;;25.58;9.43;;;;;;;17.02;100.00;99563.53;5014734;28;20026;-58
2022/10/21 05:12:13;;;;;;;17.73;9.82;;;;;;;17.06;100.00;99562.38;5014445;28;20018;-57
2022/10/21 05:14:38;;;;;;;18.88;9.32;;;;;;;17.06;100.00;99556.13;5014476;28;20022;-58
2022/10/21 05:17:04;;;;;;;19.45;10.23;;;;;;;17.08;100.00;99548.84;5014714;28;20041;-57
2022/10/21 05:19:29;;;;;;;21.10;11.27;;;;;;;17.08;100.00;99549.69;5014792;28;20693;-58
2022/10/21 05:21:54;;;;;;;23.70;12.57;;;;;;;17.06;100.00;99540.00;5014676;28;20029;-57
2022/10/21 05:24:20;;;;;;;22.30;10.40;;;;;;;17.07;100.00;99531.84;5014240;28;20133;-58
2022/10/21 05:26:45;;;;;;;18.75;10.48;;;;;;;17.10;100.00;99538.81;5014772;28;20084;-57
2022/10/21 05:29:11;;;;;;;16.80;9.82;;;;;;;17.09;100.00;99540.66;5014567;28;20065;-58
2022/10/21 05:31:36;;;;;;;17.35;9.20;;;;;;;17.14;100.00;99534.97;5014476;28;20469;-58
2022/10/21 05:34:02;;;;;;;16.63;10.27;;;;;;;17.08;100.00;99517.44;5025508;28;20388;-57
2022/10/21 05:36:27;;;;;;;32.40;13.00;;;;;;;17.16;100.00;99513.38;5026680;28;20041;-58
2022/10/21 05:38:53;;;;;;;19.67;10.77;;;;;;;17.12;100.00;99518.09;5014117;28;20458;-58
2022/10/21 05:41:19;;;;;;;22.83;11.13;;;;;;;17.12;100.00;99507.34;5014473;28;20393;-58
2022/10/21 05:43:44;;;;;;;15.55;8.95;;;;;;;17.13;100.00;99504.53;5013993;28;20388;-58
2022/10/21 05:46:10;;;;;;;22.80;10.60;;;;;;;17.11;100.00;99508.31;5014201;28;20034;-58
2022/10/21 05:48:36;;;;;;;19.73;10.70;;;;;;;17.10;100.00;99514.63;5014201;28;20022;-58
2022/10/21 05:51:02;;;;;;;18.92;12.57;;;;;;;17.10;100.00;99520.88;5013904;28;20036;-58
2022/10/21 05:53:28;;;;;;;27.13;17.75;;;;;;;17.09;100.00;99507.56;5011131;28;20030;-58
2022/10/21 05:56:01;;;;;;;26.48;11.32;;;;;;;17.13;100.00;99525.22;5013857;28;20033;-59
2022/10/21 05:58:29;;;;;;;33.40;22.02;;;;;;;17.09;100.00;99529.91;5014211;28;20164;-59
2022/10/21 06:00:56;;;;;;;28.70;18.45;;;;;;;17.09;100.00;99558.63;5014022;28;20022;-59
2022/10/21 06:03:24;;;;;;;22.25;15.85;;;;;;;17.08;100.00;99560.44;5013038;28;20021;-58
2022/10/21 06:05:50;;;;;;;24.02;14.27;;;;;;;17.12;100.00;99557.56;5013604;28;20138;-59
2022/10/21 06:08:16;;;;;;;19.52;13.43;;;;;;;17.12;100.00;99554.88;5014025;28;20086;-58
2022/10/21 06:10:43;;;;;;;20.33;15.40;;;;;;;17.10;100.00;99563.00;5013847;28;20020;-59
2022/10/21 06:13:08;;;;;;;17.15;10.65;;;;;;;17.13;100.00;99568.22;5032204;28;20033;-58
2022/10/21 06:15:35;;;;;;;14.13;7.80;;;;;;;17.16;100.00;99561.75;5033575;28;20029;-58
2022/10/21 06:18:01;;;;;;;22.70;11.40;;;;;;;17.19;100.00;99554.34;5013549;28;20088;-60
2022/10/21 06:20:26;;;;;;;19.80;8.32;;;;;;;17.22;100.00;99531.75;5012947;28;20034;-59
2022/10/21 06:22:52;;;;;;;17.20;8.80;;;;;;;17.26;100.00;99514.47;5013311;28;20037;-59
2022/10/21 06:25:17;;;;;;;11.18;6.45;;;;;;;17.27;100.00;99506.31;5012928;28;20104;-59
2022/10/21 06:27:42;;;;;;;12.98;5.88;;;;;;;17.33;100.00;99511.25;5006726;28;20540;-60
2022/10/21 06:30:09;;;;;;;12.30;6.90;;;;;;;17.36;100.00;99494.06;5008256;28;20037;-59
2022/10/21 06:32:34;;;;;;;13.95;9.32;;;;;;;17.37;100.00;99496.66;5005094;28;20033;-59
2022/10/21 06:35:00;;;;;;;12.15;7.60;;;;;;;17.39;100.00;99494.72;5009136;28;20022;-59
2022/10/21 06:37:25;;;;;;;12.13;6.28;;;;;;;17.40;100.00;99504.50;5008267;28;20468;-58
2022/10/21 06:39:51;;;;;;;14.63;6.00;;;;;;;17.41;100.00;99508.06;5014726;28;20038;-59
2022/10/21 06:42:16;;;;;;;12.98;6.82;;;;;;;17.35;100.00;99506.66;5010017;28;20607;-58
2022/10/21 06:44:41;;;;;;;17.20;14.90;;;;;;;17.45;100.00;99539.13;5008301;28;20038;-59
2022/10/21 06:47:07;;;;;;;17.67;11.40;;;;;;;17.45;100.00;99556.19;5007570;28;20038;-58
2022/10/21 06:49:33;;;;;;;12.90;9.20;;;;;;;17.47;100.00;99556.94;5009711;28;20462;-59
2022/10/21 06:51:58;;;;;;;17.70;9.85;;;;;;;17.50;100.00;99550.47;4997011;28;20030;-59
2022/10/21 06:54:24;;;;;;;11.93;8.07;;;;;;;17.58;100.00;99548.13;4994266;28;20084;-58
2022/10/21 06:56:49;;;;;;;20.92;12.65;;;;;;;17.61;100.00;99554.16;4990481;28;20054;-59
2022/10/21 06:59:15;;;;;;;21.67;16.02;;;;;;;17.63;100.00;99556.75;5008912;28;20041;-59
2022/10/21 07:01:41;;;;;;;13.30;7.70;;;;;;;17.66;100.00;99556.56;5010670;28;20033;-59
2022/10/21 07:04:06;;;;;;;19.20;11.00;;;;;;;17.66;100.00;99540.41;5010596;28;20492;-59
2022/10/21 07:06:32;;;;;;;14.73;10.02;;;;;;;17.65;100.00;99549.44;5010087;28;20029;-58
2022/10/21 07:08:58;;;;;;;12.80;8.52;;;;;;;17.65;100.00;99544.06;5011067;28;20113;-59
2022/10/21 07:11:23;;;;;;;12.98;7.47;;;;;;;17.68;100.00;99543.84;5007718;28;20029;-59
2022/10/21 07:13:49;;;;;;;24.55;10.00;;;;;;;17.71;100.00;99543.66;5010140;28;20037;-59
2022/10/21 07:16:21;;;;;;;9.98;6.15;;;;;;;17.74;100.00;99544.28;5007886;28;20045;-59
2022/10/21 07:18:47;;;;;;;16.70;8.57;;;;;;;17.74;100.00;99543.44;5010279;28;20076;-59
2022/10/21 07:21:16;;;;;;;13.38;9.15;;;;;;;17.75;100.00;99561.28;5001044;28;20057;-58
2022/10/21 07:23:43;;;;;;;18.33;13.85;;;;;;;17.75;100.00;99572.91;5004787;28;20026;-58
2022/10/21 07:26:09;;;;;;;23.60;12.25;;;;;;;17.78;100.00;99550.31;4995063;28;20129;-58
2022/10/21 07:28:34;;;;;;;16.42;11.65;;;;;;;17.79;100.00;99544.81;5007769;28;20116;-58
2022/10/21 07:31:00;;;;;;;23.25;11.75;;;;;;;17.82;100.00;99567.97;5009914;28;20528;-58
2022/10/21 07:33:26;;;;;;;14.43;11.05;;;;;;;17.77;100.00;99578.19;5003977;28;20145;-58
2022/10/21 07:36:00;;;;;;;15.93;8.48;;;;;;;17.81;100.00;99588.63;5011018;28;20570;-58
2022/10/21 07:38:26;;;;;;;14.75;8.05;;;;;;;17.81;100.00;99580.56;5011523;28;20026;-58
2022/10/21 07:40:51;;;;;;;28.95;17.63;;;;;;;17.82;100.00;99585.00;5014672;28;20567;-58
2022/10/21 07:43:17;;;;;;;23.38;13.52;;;;;;;17.85;100.00;99590.16;5018638;28;20029;-58
2022/10/21 07:45:43;;;;;;;14.32;6.57;;;;;;;17.84;100.00;99596.47;5011173;28;20129;-58
2022/10/21 07:48:09;;;;;;;10.88;4.97;;;;;;;17.85;100.00;99609.00;5005675;28;20473;-58
2022/10/21 07:50:35;;;;;;;14.15;7.78;;;;;;;17.85;100.00;99595.53;4991943;28;20085;-58
2022/10/21 07:53:01;;;;;;;12.00;5.65;;;;;;;17.87;100.00;99611.56;5009570;28;20037;-58
2022/10/21 07:55:27;;;;;;;13.52;4.85;;;;;;;17.83;100.00;99628.88;5011582;28;20033;-58
2022/10/21 07:57:52;;;;;;;10.68;3.72;;;;;;;17.84;100.00;99633.31;5011877;28;20022;-58
2022/10/21 08:00:18;;;;;;;14.65;4.82;;;;;;;17.83;100.00;99643.22;5011525;28;20807;-59
2022/10/21 08:02:43;;;;;;;11.40;4.35;;;;;;;17.81;100.00;99647.81;5001648;28;20037;-58
2022/10/21 08:05:09;;;;;;;11.55;5.63;;;;;;;17.82;100.00;99628.03;5002028;28;20044;-58
2022/10/21 08:07:34;;;;;;;9.13;4.00;;;;;;;17.83;100.00;99656.66;5011958;28;20033;-58
2022/10/21 08:10:00;;;;;;;10.15;4.22;;;;;;;17.72;100.00;99640.38;4995330;28;20025;-58
2022/10/21 08:12:26;;;;;;;9.50;4.50;;;;;;;17.80;100.00;99656.88;5005057;28;20353;-58
2022/10/21 08:14:51;;;;;;;10.15;4.57;;;;;;;17.82;100.00;99648.69;4998248;28;20030;-58
2022/10/21 08:17:17;;;;;;;11.25;3.85;;;;;;;17.83;100.00;99643.22;4995302;28;20058;-57
2022/10/21 08:19:42;;;;;;;9.88;4.97;;;;;;;17.87;100.00;99647.44;5011075;28;20555;-58
2022/10/21 08:22:08;;;;;;;9.60;4.85;;;;;;;17.84;100.00;99666.44;5000766;28;20030;-58
2022/10/21 08:24:33;;;;;;;13.32;4.03;;;;;;;17.79;100.00;99665.06;5009470;28;20417;-58
2022/10/21 08:26:59;;;;;;;13.30;5.05;;;;;;;17.78;100.00;99685.69;4996482;28;20030;-58
2022/10/21 08:29:25;;;;;;;10.02;3.97;;;;;;;17.76;100.00;99687.63;4993915;28;20150;-58
2022/10/21 08:31:50;;;;;;;12.13;6.43;;;;;;;17.75;100.00;99691.28;5006956;28;20025;-58
2022/10/21 08:34:15;;;;;;;18.15;9.57;;;;;;;17.78;100.00;99691.09;5003227;28;20982;-58
2022/10/21 08:36:41;;;;;;;22.02;13.50;;;;;;;17.74;100.00;99686.03;5003104;28;20519;-58
2022/10/21 08:39:07;;;;;;;11.30;5.82;;;;;;;17.76;100.00;99698.38;4996969;28;20045;-58
2022/10/21 08:41:38;;;;;;;13.38;7.25;;;;;;;17.80;100.00;99702.63;5000946;28;20030;-58
2022/10/21 08:44:10;;;;;;;20.83;12.60;;;;;;;17.81;100.00;99707.03;4999389;28;20037;-57
2022/10/21 08:46:49;;;;;;;20.63;13.95;;;;;;;17.78;100.00;99695.59;5000081;28;20068;-58
2022/10/21 08:49:40;;;;;;;14.88;7.78;;;;;;;17.83;100.00;99706.91;4994491;28;20062;-58
2022/10/21 08:52:12;;;;;;;13.05;6.13;;;;;;;17.81;100.00;99712.41;4998781;28;20038;-58
2022/10/21 08:55:10;;;;;;;12.05;7.43;;;;;;;17.79;100.00;99714.31;4999346;28;20029;-58
2022/10/21 08:57:35;;;;;;;8.93;3.70;;;;;;;17.83;100.00;99710.47;4975188;28;20077;-58
2022/10/21 09:00:12;;;;;;;17.17;9.05;;;;;;;17.87;100.00;99705.75;4992010;28;20058;-57
2022/10/21 09:02:58;;;;;;;8.32;5.38;;;;;;;17.93;100.00;99708.91;4997219;28;20034;-58
2022/10/21 09:05:29;;;;;;;19.02;12.73;;;;;;;17.94;100.00;99717.84;4994422;28;20030;-58
2022/10/21 09:08:06;;;;;;;32.70;18.42;;;;;;;17.94;100.00;99712.47;4996228;28;20038;-57
2022/10/21 09:10:46;;;;;;;30.38;22.13;;;;;;;17.96;100.00;99714.06;5001236;28;20425;-57
2022/10/21 09:13:34;;;;;;;10.05;5.40;;;;;;;18.01;100.00;99719.13;4998964;28;20030;-57
2022/10/21 09:16:21;;;;;;;9.90;4.60;;;;;;;18.09;100.00;99720.34;4993922;28;20034;-57
2022/10/21 09:19:05;;;;;;;5.28;2.90;;;;;;;18.19;100.00;99713.38;4996801;28;20031;-60
2022/10/21 09:21:48;;;;;;;6.78;3.38;;;;;;;18.22;100.00;99718.53;4994835;28;20053;-57
2022/10/21 09:24:43;;;;;;;7.00;3.58;;;;;;;18.32;100.00;99713.38;4996728;28;20058;-57
2022/10/21 09:27:09;;;;;;;6.72;2.03;;;;;;;18.29;100.00;99703.69;5000195;28;20072;-57
2022/10/21 09:29:43;;;;;;;6.78;2.28;;;;;;;18.30;100.00;99705.41;4991277;28;20082;-58
2022/10/21 09:32:11;;;;;;;4.70;2.13;;;;;;;18.27;100.00;99713.69;4993717;28;20486;-57
2022/10/21 09:34:56;;;;;;;6.25;2.30;;;;;;;18.27;100.00;99710.13;4998968;28;20105;-57
2022/10/21 09:37:31;;;;;;;4.32;2.00;;;;;;;18.21;100.00;99706.06;4995783;28;20104;-57
2022/10/21 09:40:18;;;;;;;5.30;2.58;;;;;;;18.30;100.00;99718.88;4996412;28;20636;-57
2022/10/21 09:42:44;;;;;;;5.63;2.10;;;;;;;18.24;100.00;99716.59;5024365;28;20168;-57
2022/10/21 09:45:16;;;;;;;5.65;2.72;;;;;;;18.32;100.00;99725.03;5002927;28;20145;-58
2022/10/21 09:47:43;;;;;;;10.05;2.40;;;;;;;18.37;100.00;99722.88;5010642;28;20511;-57
2022/10/21 09:50:15;;;;;;;7.47;3.40;;;;;;;18.37;100.00;99711.22;5002472;28;20240;-57
2022/10/21 09:52:47;;;;;;;7.38;2.78;;;;;;;18.45;100.00;99718.84;5000305;28;20033;-58
2022/10/21 09:55:15;;;;;;;4.50;2.80;;;;;;;18.44;100.00;99719.78;5002300;28;20041;-58
2022/10/21 09:58:03;;;;;;;5.93;3.25;;;;;;;18.53;100.00;99716.47;4994317;28;20027;-57
2022/10/21 10:00:46;;;;;;;7.97;2.95;;;;;;;18.58;100.00;99720.56;4992522;28;20046;-59
2022/10/21 10:03:11;;;;;;;9.98;2.92;;;;;;;18.60;100.00;99724.00;5008519;28;20033;-59
2022/10/21 10:05:45;;;;;;;10.98;2.75;;;;;;;18.64;100.00;99730.91;4997209;28;20064;-59
2022/10/21 10:08:41;;;;;;;6.88;2.60;;;;;;;18.76;100.00;99734.56;4997449;28;20068;-59
2022/10/21 10:11:11;;;;;;;7.85;3.00;;;;;;;18.82;100.00;99736.81;5001757;28;20068;-58
2022/10/21 10:13:49;;;;;;;5.10;2.60;;;;;;;18.95;100.00;99732.28;4998015;28;20030;-58
2022/10/21 10:16:17;;;;;;;8.63;2.80;;;;;;;19.00;100.00;99728.31;4996092;28;20749;-58
2022/10/21 10:18:44;;;;;;;7.57;2.70;;;;;;;18.99;100.00;99720.34;5002465;28;20034;-58
2022/10/21 10:21:15;;;;;;;8.50;2.67;;;;;;;19.04;100.00;99726.25;4994874;28;20083;-58
2022/10/21 10:23:46;;;;;;;5.75;2.30;;;;;;;19.01;100.00;99734.56;4997214;28;20036;-57
2022/10/21 10:26:19;;;;;;;8.82;2.38;;;;;;;19.08;100.00;99741.22;4997161;28;20050;-58
2022/10/21 10:28:51;;;;;;;7.25;2.63;;;;;;;19.11;100.00;99730.25;4995212;28;20452;-59
2022/10/21 10:31:26;;;;;;;4.80;1.92;;;;;;;19.13;100.00;99722.88;5000018;28;20037;-58
2022/10/21 10:33:55;;;;;;;4.85;3.05;;;;;;;19.17;100.00;99724.41;4998101;28;20038;-58
2022/10/21 10:36:28;;;;;;;4.70;2.00;;;;;;;19.24;100.00;99720.28;4997414;28;20506;-58
2022/10/21 10:38:57;;;;;;;5.72;2.67;;;;;;;19.27;100.00;99720.06;5005094;28;20113;-58
2022/10/21 10:41:48;;;;;;;8.20;3.03;;;;;;;19.34;100.00;99713.28;4999590;28;20038;-58
2022/10/21 10:44:26;;;;;;;6.53;2.65;;;;;;;19.43;100.00;99716.19;4996407;28;20026;-58
2022/10/21 10:46:57;;;;;;;6.55;3.55;;;;;;;19.48;100.00;99713.13;4998160;28;20030;-58
2022/10/21 10:49:25;;;;;;;6.40;3.33;;;;;;;19.48;100.00;99714.00;4994771;28;20029;-59
2022/10/21 10:52:09;;;;;;;10.80;3.55;;;;;;;19.58;100.00;99715.06;5001427;28;20026;-58
2022/10/21 10:54:38;;;;;;;;;;;;;;;19.65;100.00;99727.09;4997609;28;20074;-58
2022/10/21 10:57:26;;;;;;;7.28;2.47;;;;;;;19.67;100.00;99718.03;4997238;28;19992;-58
2022/10/21 11:00:03;;;;;;;5.20;2.45;;;;;;;19.63;100.00;99722.78;4997976;28;20042;-59
2022/10/21 11:02:50;;;;;;;7.32;1.90;;;;;;;19.64;100.00;99719.09;4993638;28;20038;-59
2022/10/21 11:05:37;;;;;;;4.88;2.03;;;;;;;19.63;100.00;99712.00;5000361;28;20116;-58
2022/10/21 11:08:35;;;;;;;5.60;1.98;;;;;;;19.63;100.00;99717.41;4994756;28;20033;-58
2022/10/21 11:11:06;;;;;;;5.68;2.00;;;;;;;19.67;100.00;99723.44;4998298;28;20038;-58
2022/10/21 11:13:36;;;;;;;4.78;2.08;;;;;;;19.67;100.00;99714.34;4997191;28;20473;-59
2022/10/21 11:16:32;;;;;;;4.93;2.17;;;;;;;19.64;100.00;99714.59;4997346;28;20034;-59
2022/10/21 11:19:18;;;;;;;7.10;1.85;;;;;;;19.71;100.00;99720.38;5004296;28;20385;-59
2022/10/21 11:21:48;;;;;;;4.82;1.80;;;;;;;19.60;100.00;99706.84;4994961;28;20097;-59
2022/10/21 11:24:27;;;;;;;4.65;1.65;;;;;;;19.69;100.00;99695.34;4995577;28;20058;-58
2022/10/21 11:26:58;;;;;;;6.43;1.75;;;;;;;19.71;100.00;99698.78;4995233;28;20085;-59
2022/10/21 11:29:39;;;;;;;7.18;1.65;;;;;;;19.82;100.00;99706.09;4996343;28;20022;-59